Time;durP1;ratioP1;P1;durP2;ratioP2;P2;SDS_P1;SDS_P2;PMS_P1;PMS_P2;Temp;Humidity;BMP_temperature;BMP_pressure;BME280_temperature;BME280_humidity;BME280_pressure;Samples;Min_cycle;Max_cycle;Signal;HPM_P1;HPM_P2
2024/03/02 00:02:01;;;;;;;51.97;30.27;;;;;;;;;;5106150;28;20111;-62
2024/03/02 00:04:26;;;;;;;52.00;31.70;;;;;;;;;;5110251;28;20080;-64
2024/03/02 00:06:55;;;;;;;56.55;31.98;;;;;;;;;;5112779;28;20058;-66
2024/03/02 00:09:20;;;;;;;55.85;32.45;;;;;;;;;;5111975;28;20026;-65
2024/03/02 00:11:46;;;;;;;60.70;33.28;;;;;;;;;;5112065;28;20376;-65
2024/03/02 00:14:11;;;;;;;62.97;34.95;;;;;;;;;;5112417;28;20411;-64
2024/03/02 00:16:37;;;;;;;70.20;33.75;;;;;;;;;;5112013;28;20031;-66
2024/03/02 00:19:05;;;;;;;64.13;33.90;;;;;;;;;;5110296;28;20056;-66
2024/03/02 00:21:31;;;;;;;63.83;34.38;;;;;;;;;;5110831;28;20088;-64
2024/03/02 00:23:57;;;;;;;63.15;34.28;;;;;;;;;;5091755;28;20023;-60
2024/03/02 00:26:22;;;;;;;59.63;33.67;;;;;;;;;;5107282;28;20024;-67
2024/03/02 00:28:50;;;;;;;67.05;35.22;;;;;;;;;;5113716;28;20227;-67
2024/03/02 00:31:19;;;;;;;60.70;33.63;;;;;;;;;;5115661;28;20034;-66
2024/03/02 00:33:46;;;;;;;66.70;34.08;;;;;;;;;;5113509;28;20035;-67
2024/03/02 00:36:29;;;;;;;58.67;33.97;;;;;;;;;;5115781;28;20028;-65
2024/03/02 00:38:54;;;;;;;63.88;34.85;;;;;;;;;;5116054;28;20059;-65
2024/03/02 00:41:24;;;;;;;58.65;32.95;;;;;;;;;;5115113;28;20471;-64
2024/03/02 00:43:52;;;;;;;56.88;32.13;;;;;;;;;;5114488;28;20350;-64
2024/03/02 00:46:18;;;;;;;62.05;33.47;;;;;;;;;;5112672;28;20055;-65
2024/03/02 00:48:54;;;;;;;62.38;32.47;;;;;;;;;;5094621;28;20411;-66
2024/03/02 00:51:21;;;;;;;59.65;32.72;;;;;;;;;;5095019;28;20086;-66
2024/03/02 00:53:46;;;;;;;63.97;33.30;;;;;;;;;;5103360;28;20044;-65
2024/03/02 00:56:14;;;;;;;63.67;33.70;;;;;;;;;;5115573;28;20402;-65
2024/03/02 00:58:40;;;;;;;59.88;33.22;;;;;;;;;;5114826;28;20068;-64
2024/03/02 01:01:06;;;;;;;64.88;31.85;;;;;;;;;;5113201;27;20027;-65
2024/03/02 01:03:32;;;;;;;61.88;33.92;;;;;;;;;;5096985;28;20505;-65
2024/03/02 01:05:57;;;;;;;56.88;32.70;;;;;;;;;;5095458;28;20100;-63
2024/03/02 01:08:23;;;;;;;67.88;34.35;;;;;;;;;;5102317;28;20027;-65
2024/03/02 01:10:48;;;;;;;62.90;33.33;;;;;;;;;;5114621;28;20065;-64
2024/03/02 01:13:14;;;;;;;62.03;32.17;;;;;;;;;;5115150;28;20046;-64
2024/03/02 01:15:39;;;;;;;57.22;34.00;;;;;;;;;;5107037;28;20062;-65
2024/03/02 01:18:04;;;;;;;60.88;33.20;;;;;;;;;;5094517;28;20031;-64
2024/03/02 01:20:30;;;;;;;64.38;33.53;;;;;;;;;;5093900;28;20489;-61
2024/03/02 01:22:55;;;;;;;59.08;33.38;;;;;;;;;;5110924;28;20445;-64
2024/03/02 01:25:20;;;;;;;60.60;33.08;;;;;;;;;;5115064;27;20027;-64
2024/03/02 01:27:46;;;;;;;61.97;33.33;;;;;;;;;;5114555;28;20019;-64
2024/03/02 01:30:11;;;;;;;55.17;31.58;;;;;;;;;;5099336;28;20031;-63
2024/03/02 01:32:38;;;;;;;56.63;32.80;;;;;;;;;;5094111;28;20027;-65
2024/03/02 01:35:03;;;;;;;55.00;32.30;;;;;;;;;;5094468;28;20028;-65
2024/03/02 01:37:29;;;;;;;55.55;31.80;;;;;;;;;;5094413;28;20032;-65
2024/03/02 01:39:54;;;;;;;60.60;31.90;;;;;;;;;;5093252;28;20062;-64
2024/03/02 01:42:19;;;;;;;55.83;31.40;;;;;;;;;;5107062;28;20728;-65
2024/03/02 01:44:45;;;;;;;59.45;31.10;;;;;;;;;;5101591;28;20030;-64
2024/03/02 01:47:10;;;;;;;55.97;32.13;;;;;;;;;;5093490;28;20099;-64
2024/03/02 01:49:36;;;;;;;57.30;32.33;;;;;;;;;;5094570;28;20054;-65
2024/03/02 01:52:02;;;;;;;56.80;33.05;;;;;;;;;;5111350;28;20085;-60
2024/03/02 01:54:27;;;;;;;60.85;31.58;;;;;;;;;;5114085;28;20035;-66
2024/03/02 01:56:52;;;;;;;57.92;31.00;;;;;;;;;;5113906;28;20021;-64
2024/03/02 01:59:18;;;;;;;57.78;31.67;;;;;;;;;;5104524;28;20024;-64
2024/03/02 02:01:43;;;;;;;65.97;33.03;;;;;;;;;;5114024;28;20027;-65
2024/03/02 02:04:08;;;;;;;60.53;32.35;;;;;;;;;;5113597;28;20031;-65
2024/03/02 02:06:34;;;;;;;59.72;31.30;;;;;;;;;;5113771;28;20015;-64
2024/03/02 02:08:59;;;;;;;54.63;29.88;;;;;;;;;;5114284;28;20049;-64
2024/03/02 02:11:24;;;;;;;55.67;30.75;;;;;;;;;;5113486;28;20015;-65
2024/03/02 02:13:50;;;;;;;63.30;30.85;;;;;;;;;;5101707;28;20051;-65
2024/03/02 02:16:15;;;;;;;54.95;31.25;;;;;;;;;;5093334;28;20026;-64
2024/03/02 02:18:41;;;;;;;58.72;31.05;;;;;;;;;;5094087;28;20024;-64
2024/03/02 02:21:06;;;;;;;56.63;31.50;;;;;;;;;;5109211;28;20098;-62
2024/03/02 02:23:31;;;;;;;62.55;32.58;;;;;;;;;;5113894;27;20019;-63
2024/03/02 02:25:56;;;;;;;58.15;32.33;;;;;;;;;;5113783;28;20023;-64
2024/03/02 02:28:22;;;;;;;56.05;31.15;;;;;;;;;;5103209;28;20039;-66
2024/03/02 02:30:47;;;;;;;54.63;30.63;;;;;;;;;;5092956;28;20107;-64
2024/03/02 02:33:12;;;;;;;63.95;33.35;;;;;;;;;;5093460;28;20024;-64
2024/03/02 02:35:38;;;;;;;58.13;33.90;;;;;;;;;;5092573;28;20055;-64
2024/03/02 02:38:03;;;;;;;59.13;32.92;;;;;;;;;;5092967;28;20413;-67
2024/03/02 02:40:31;;;;;;;67.55;34.20;;;;;;;;;;5095982;28;20103;-66
2024/03/02 02:42:57;;;;;;;60.22;32.03;;;;;;;;;;5113383;28;20028;-65
2024/03/02 02:45:22;;;;;;;60.47;33.25;;;;;;;;;;5112855;28;20489;-66
2024/03/02 02:47:48;;;;;;;66.60;34.13;;;;;;;;;;5112955;28;20024;-65
2024/03/02 02:50:13;;;;;;;63.63;35.15;;;;;;;;;;5113429;28;20353;-65
2024/03/02 02:52:40;;;;;;;61.40;34.63;;;;;;;;;;5112230;28;20052;-65
2024/03/02 02:55:06;;;;;;;66.90;34.33;;;;;;;;;;5112083;28;20036;-61
2024/03/02 02:57:35;;;;;;;63.08;34.85;;;;;;;;;;5095484;28;20354;-65
2024/03/02 03:00:09;;;;;;;55.97;33.30;;;;;;;;;;5093695;28;20027;-65
2024/03/02 03:02:34;;;;;;;58.30;32.55;;;;;;;;;;5103916;28;20498;-65
2024/03/02 03:05:00;;;;;;;58.33;31.90;;;;;;;;;;5112631;28;20106;-65
2024/03/02 03:07:25;;;;;;;59.22;34.25;;;;;;;;;;5111853;28;20084;-64
2024/03/02 03:09:50;;;;;;;57.47;32.92;;;;;;;;;;5112470;28;20441;-62
2024/03/02 03:12:16;;;;;;;61.17;34.38;;;;;;;;;;5096145;28;20027;-65
2024/03/02 03:14:41;;;;;;;62.40;33.60;;;;;;;;;;5090973;28;20184;-64
2024/03/02 03:17:08;;;;;;;63.30;35.25;;;;;;;;;;5107355;28;20358;-57
2024/03/02 03:19:33;;;;;;;59.70;34.40;;;;;;;;;;5113302;28;20425;-64
2024/03/02 03:21:58;;;;;;;64.22;34.30;;;;;;;;;;5111765;28;20047;-64
2024/03/02 03:24:24;;;;;;;67.75;36.20;;;;;;;;;;5095873;28;20043;-65
2024/03/02 03:26:49;;;;;;;65.65;35.85;;;;;;;;;;5092896;28;20027;-66
2024/03/02 03:29:14;;;;;;;62.67;35.75;;;;;;;;;;5091823;28;20063;-66
2024/03/02 03:31:39;;;;;;;64.00;36.00;;;;;;;;;;5100230;28;20051;-67
2024/03/02 03:34:05;;;;;;;62.88;37.47;;;;;;;;;;5112499;28;20174;-67
2024/03/02 03:36:30;;;;;;;64.63;38.13;;;;;;;;;;5112454;28;20107;-67
2024/03/02 03:38:55;;;;;;;73.22;38.40;;;;;;;;;;5112942;28;20353;-64
2024/03/02 03:41:21;;;;;;;73.55;38.92;;;;;;;;;;5098695;28;20480;-65
2024/03/02 03:43:46;;;;;;;71.22;37.17;;;;;;;;;;5092978;28;20089;-65
2024/03/02 03:46:11;;;;;;;68.35;36.97;;;;;;;;;;5112372;28;20491;-64
2024/03/02 03:48:36;;;;;;;69.38;39.90;;;;;;;;;;5112609;28;20028;-65
2024/03/02 03:51:02;;;;;;;74.68;39.75;;;;;;;;;;5112210;28;20417;-65
2024/03/02 03:53:27;;;;;;;67.95;39.22;;;;;;;;;;5112022;28;20040;-65
2024/03/02 03:55:53;;;;;;;67.43;38.78;;;;;;;;;;5099910;28;20431;-66
2024/03/02 03:58:20;;;;;;;68.13;38.45;;;;;;;;;;5092177;28;20075;-66
2024/03/02 04:00:45;;;;;;;69.35;39.85;;;;;;;;;;5091654;28;20343;-65
2024/03/02 04:03:11;;;;;;;66.80;38.83;;;;;;;;;;5093782;28;20027;-65
2024/03/02 04:05:36;;;;;;;69.90;38.53;;;;;;;;;;5103466;28;20023;-65
2024/03/02 04:08:01;;;;;;;67.93;38.95;;;;;;;;;;5115795;28;20024;-65
2024/03/02 04:10:27;;;;;;;66.57;38.92;;;;;;;;;;5105867;28;20355;-65
2024/03/02 04:12:52;;;;;;;75.22;39.40;;;;;;;;;;5095614;28;20056;-66
2024/03/02 04:15:18;;;;;;;73.35;39.38;;;;;;;;;;5095427;28;20023;-66
2024/03/02 04:17:43;;;;;;;70.72;41.30;;;;;;;;;;5095589;28;20533;-64
2024/03/02 04:20:09;;;;;;;76.50;41.58;;;;;;;;;;5096144;28;20060;-67
2024/03/02 04:22:35;;;;;;;73.85;41.40;;;;;;;;;;5095466;28;20351;-65
2024/03/02 04:25:01;;;;;;;75.03;39.15;;;;;;;;;;5103086;28;20024;-66
2024/03/02 04:27:26;;;;;;;71.40;41.25;;;;;;;;;;5116100;28;20039;-66
2024/03/02 04:29:51;;;;;;;73.85;41.92;;;;;;;;;;5115890;28;20468;-67
2024/03/02 04:32:17;;;;;;;72.85;41.38;;;;;;;;;;5115267;28;20027;-67
2024/03/02 04:34:42;;;;;;;78.25;41.13;;;;;;;;;;5115663;28;20039;-63
2024/03/02 04:37:07;;;;;;;76.88;43.55;;;;;;;;;;5116335;28;20020;-64
2024/03/02 04:39:34;;;;;;;79.43;43.92;;;;;;;;;;5108063;28;20085;-66
2024/03/02 04:41:59;;;;;;;73.78;43.72;;;;;;;;;;5094916;28;20039;-65
2024/03/02 04:44:25;;;;;;;75.60;43.38;;;;;;;;;;5095374;28;20028;-66
2024/03/02 04:46:50;;;;;;;68.18;39.38;;;;;;;;;;5096535;28;20130;-67
2024/03/02 04:49:15;;;;;;;79.35;42.50;;;;;;;;;;5094576;28;20047;-67
2024/03/02 04:51:41;;;;;;;74.18;42.78;;;;;;;;;;5094914;28;20127;-64
2024/03/02 04:54:06;;;;;;;71.55;40.17;;;;;;;;;;5095130;28;20040;-62
2024/03/02 04:58:57;;;;;;;78.53;43.75;;;;;;;;;;5097901;28;20039;-55
2024/03/02 05:01:22;;;;;;;78.28;45.25;;;;;;;;;;5114909;28;20027;-57
2024/03/02 05:03:47;;;;;;;79.55;43.88;;;;;;;;;;5115503;28;20020;-61
2024/03/02 05:06:12;;;;;;;80.00;44.13;;;;;;;;;;5115390;28;20413;-60
2024/03/02 05:08:38;;;;;;;79.32;44.80;;;;;;;;;;5113520;28;20030;-62
2024/03/02 05:13:54;;;;;;;81.03;45.85;;;;;;;;;;5078740;28;20108;-64
2024/03/02 05:16:20;;;;;;;80.63;44.40;;;;;;;;;;5113752;28;20326;-62
2024/03/02 05:18:45;;;;;;;83.13;46.97;;;;;;;;;;5110191;28;20051;-63
2024/03/02 05:21:11;;;;;;;84.32;50.00;;;;;;;;;;5094238;28;20107;-62
2024/03/02 05:23:37;;;;;;;84.15;50.85;;;;;;;;;;5094499;28;20027;-63
2024/03/02 05:26:02;;;;;;;90.65;52.67;;;;;;;;;;5094775;28;20069;-63
2024/03/02 05:28:28;;;;;;;97.18;56.17;;;;;;;;;;5095256;28;20027;-64
2024/03/02 05:30:53;;;;;;;96.55;57.35;;;;;;;;;;5111500;28;20052;-62
2024/03/02 05:33:22;;;;;;;87.65;53.42;;;;;;;;;;5114556;28;20114;-60
2024/03/02 05:35:47;;;;;;;95.13;55.72;;;;;;;;;;5098097;28;20036;-63
2024/03/02 05:38:12;;;;;;;102.72;61.20;;;;;;;;;;5095422;28;20095;-63
2024/03/02 05:40:38;;;;;;;96.45;59.20;;;;;;;;;;5114172;28;20032;-64
2024/03/02 05:43:03;;;;;;;106.88;64.47;;;;;;;;;;5112448;28;20026;-67
2024/03/02 05:45:28;;;;;;;108.80;63.75;;;;;;;;;;5105804;28;20343;-65
2024/03/02 05:47:54;;;;;;;106.47;64.35;;;;;;;;;;5092678;28;20024;-65
2024/03/02 05:50:19;;;;;;;101.05;63.70;;;;;;;;;;5093449;28;20020;-64
2024/03/02 05:52:45;;;;;;;106.13;67.57;;;;;;;;;;5092904;28;20052;-55
2024/03/02 05:55:10;;;;;;;124.95;80.55;;;;;;;;;;5093973;28;20047;-65
2024/03/02 05:57:49;;;;;;;128.32;78.72;;;;;;;;;;5093453;28;20024;-64
2024/03/02 06:00:16;;;;;;;123.78;80.97;;;;;;;;;;5097276;28;20038;-65
2024/03/02 06:02:42;;;;;;;126.25;81.07;;;;;;;;;;5093618;28;20032;-65
2024/03/02 06:05:07;;;;;;;132.40;82.68;;;;;;;;;;5093317;28;20072;-67
2024/03/02 06:07:32;;;;;;;123.10;79.50;;;;;;;;;;5098629;28;20110;-64
2024/03/02 06:09:58;;;;;;;117.07;74.75;;;;;;;;;;5113384;27;20084;-66
2024/03/02 06:12:23;;;;;;;121.28;75.30;;;;;;;;;;5113382;28;20495;-59
2024/03/02 06:14:49;;;;;;;122.85;73.80;;;;;;;;;;5097347;28;20036;-61
2024/03/02 06:17:14;;;;;;;115.93;69.18;;;;;;;;;;5093415;28;20016;-64
2024/03/02 06:19:39;;;;;;;116.78;69.55;;;;;;;;;;5092966;28;20099;-62
2024/03/02 06:22:05;;;;;;;118.82;69.78;;;;;;;;;;5093491;28;20020;-62
2024/03/02 06:24:30;;;;;;;124.05;72.82;;;;;;;;;;5092682;28;20350;-62
2024/03/02 06:26:56;;;;;;;118.57;73.30;;;;;;;;;;5094760;28;20448;-63
2024/03/02 06:29:21;;;;;;;116.80;71.03;;;;;;;;;;5113160;28;20020;-62
2024/03/02 06:31:47;;;;;;;124.00;74.72;;;;;;;;;;5114059;28;20106;-62
2024/03/02 06:34:12;;;;;;;119.25;72.07;;;;;;;;;;5113374;28;20093;-62
2024/03/02 06:36:38;;;;;;;124.97;73.93;;;;;;;;;;5112060;28;20385;-61
2024/03/02 06:39:03;;;;;;;116.88;70.10;;;;;;;;;;5113315;28;20019;-62
2024/03/02 06:41:29;;;;;;;123.13;73.82;;;;;;;;;;5111989;28;20024;-62
2024/03/02 06:43:59;;;;;;;116.32;71.85;;;;;;;;;;5093570;28;20020;-62
2024/03/02 06:46:24;;;;;;;124.03;73.15;;;;;;;;;;5093407;28;20076;-62
2024/03/02 06:48:50;;;;;;;118.85;71.03;;;;;;;;;;5111910;28;20027;-63
2024/03/02 06:51:15;;;;;;;129.13;73.13;;;;;;;;;;5100018;28;20048;-62
2024/03/02 06:53:41;;;;;;;118.45;71.82;;;;;;;;;;5089785;28;20438;-63
2024/03/02 06:56:08;;;;;;;117.55;68.47;;;;;;;;;;5092324;28;20036;-62
2024/03/02 06:58:33;;;;;;;122.57;71.00;;;;;;;;;;5092499;28;20042;-64
2024/03/02 07:01:00;;;;;;;115.43;68.07;;;;;;;;;;5090810;28;20036;-62
2024/03/02 07:03:25;;;;;;;121.80;68.10;;;;;;;;;;5090865;28;20019;-61
2024/03/02 07:05:51;;;;;;;112.22;67.35;;;;;;;;;;5090933;28;20335;-64
2024/03/02 07:08:16;;;;;;;112.88;66.95;;;;;;;;;;5092933;28;20043;-63
2024/03/02 07:10:41;;;;;;;110.22;67.47;;;;;;;;;;5109398;28;20019;-61
2024/03/02 07:13:07;;;;;;;117.57;68.13;;;;;;;;;;5112135;28;20089;-64
2024/03/02 07:18:12;;;;;;;113.28;63.67;;;;;;;;;;5111941;28;20023;-62
2024/03/02 07:20:38;;;;;;;103.22;58.78;;;;;;;;;;5112737;28;20259;-62
2024/03/02 07:23:04;;;;;;;104.75;60.28;;;;;;;;;;5112287;28;20390;-60
2024/03/02 07:25:29;;;;;;;99.38;56.30;;;;;;;;;;5110384;28;20031;-62
2024/03/02 07:27:55;;;;;;;99.57;59.13;;;;;;;;;;5094551;28;20149;-64
2024/03/02 07:30:20;;;;;;;101.97;59.67;;;;;;;;;;5092256;28;20024;-63
2024/03/02 07:32:46;;;;;;;103.93;60.55;;;;;;;;;;5092148;28;20023;-62
2024/03/02 07:35:12;;;;;;;103.68;61.42;;;;;;;;;;5100908;28;20054;-62
2024/03/02 07:37:37;;;;;;;97.30;55.33;;;;;;;;;;5112935;28;20023;-62
2024/03/02 07:40:03;;;;;;;100.47;56.85;;;;;;;;;;5114947;28;20023;-63
2024/03/02 07:42:29;;;;;;;101.43;56.20;;;;;;;;;;5099174;28;20024;-62
2024/03/02 07:44:54;;;;;;;94.25;54.15;;;;;;;;;;5095213;28;20020;-77
2024/03/02 07:47:19;;;;;;;100.22;56.95;;;;;;;;;;5111700;28;20023;-62
2024/03/02 07:49:46;;;;;;;86.47;52.97;;;;;;;;;;5115963;28;20019;-63
2024/03/02 07:52:11;;;;;;;95.20;55.25;;;;;;;;;;5115237;28;20100;-63
2024/03/02 07:54:36;;;;;;;93.25;55.15;;;;;;;;;;5116324;28;20051;-63
2024/03/02 07:57:02;;;;;;;94.32;55.88;;;;;;;;;;5100052;28;20367;-62
2024/03/02 07:59:27;;;;;;;92.65;54.05;;;;;;;;;;5095475;28;20089;-61
2024/03/02 08:01:55;;;;;;;93.38;55.35;;;;;;;;;;5095956;28;20073;-61
2024/03/02 08:04:20;;;;;;;90.78;54.13;;;;;;;;;;5095810;28;20020;-64
2024/03/02 08:06:45;;;;;;;89.47;52.03;;;;;;;;;;5096189;28;20437;-62
2024/03/02 08:09:11;;;;;;;81.80;47.20;;;;;;;;;;5096176;28;20024;-61
2024/03/02 08:11:37;;;;;;;87.03;51.70;;;;;;;;;;5110042;28;20038;-61
2024/03/02 08:14:03;;;;;;;88.75;51.15;;;;;;;;;;5115970;28;20035;-61
2024/03/02 08:16:28;;;;;;;85.97;52.13;;;;;;;;;;5115808;28;20110;-61
2024/03/02 08:18:54;;;;;;;85.60;51.03;;;;;;;;;;5111011;28;20091;-61
2024/03/02 08:21:19;;;;;;;83.35;51.63;;;;;;;;;;5095393;28;20031;-64
2024/03/02 08:23:45;;;;;;;84.70;51.38;;;;;;;;;;5095280;28;20036;-62
2024/03/02 08:26:10;;;;;;;86.75;51.47;;;;;;;;;;5108017;28;20893;-60
2024/03/02 08:28:42;;;;;;;81.97;50.42;;;;;;;;;;5115882;27;20030;-62
2024/03/02 08:31:07;;;;;;;80.75;48.17;;;;;;;;;;5115653;28;20027;-63
2024/03/02 08:33:33;;;;;;;87.70;51.55;;;;;;;;;;5115336;28;20031;-63
2024/03/02 08:35:58;;;;;;;83.93;49.75;;;;;;;;;;5116259;27;20027;-62
2024/03/02 08:38:24;;;;;;;84.22;50.00;;;;;;;;;;5115812;28;20024;-62
2024/03/02 08:40:49;;;;;;;82.78;47.67;;;;;;;;;;5103281;28;20032;-63
2024/03/02 08:43:15;;;;;;;87.25;50.72;;;;;;;;;;5095080;28;20035;-61
2024/03/02 08:45:41;;;;;;;83.28;49.83;;;;;;;;;;5095484;28;20047;-62
2024/03/02 08:48:08;;;;;;;75.85;45.80;;;;;;;;;;5095386;28;20024;-63
2024/03/02 08:50:33;;;;;;;83.38;48.65;;;;;;;;;;5093681;28;20373;-62
2024/03/02 08:52:59;;;;;;;77.60;46.20;;;;;;;;;;5094694;28;20081;-61
2024/03/02 08:55:24;;;;;;;81.50;50.35;;;;;;;;;;5105177;28;20135;-60
2024/03/02 08:57:50;;;;;;;82.82;50.50;;;;;;;;;;5115824;28;20058;-61
2024/03/02 09:00:16;;;;;;;80.15;48.10;;;;;;;;;;5114997;28;20339;-63
2024/03/02 09:02:43;;;;;;;88.25;50.95;;;;;;;;;;5113139;28;20019;-62
2024/03/02 09:05:08;;;;;;;77.35;48.80;;;;;;;;;;5095375;28;20020;-61
2024/03/02 09:07:33;;;;;;;89.93;53.83;;;;;;;;;;5095086;28;20020;-61
2024/03/02 09:09:59;;;;;;;87.53;52.00;;;;;;;;;;5102767;28;20127;-63
2024/03/02 09:12:24;;;;;;;90.20;55.70;;;;;;;;;;5114960;28;20032;-62
2024/03/02 09:14:49;;;;;;;90.85;54.88;;;;;;;;;;5115513;28;20039;-64
2024/03/02 09:17:15;;;;;;;84.82;53.85;;;;;;;;;;5110650;28;20118;-63
2024/03/02 09:19:40;;;;;;;80.78;50.08;;;;;;;;;;5091955;28;20032;-63
2024/03/02 09:22:05;;;;;;;79.63;51.08;;;;;;;;;;5094203;28;20024;-60
2024/03/02 09:24:31;;;;;;;83.10;50.63;;;;;;;;;;5097627;28;20028;-61
2024/03/02 09:26:56;;;;;;;82.53;49.92;;;;;;;;;;5094074;28;20461;-63
2024/03/02 09:29:22;;;;;;;79.57;51.10;;;;;;;;;;5094249;28;20020;-63
2024/03/02 09:31:47;;;;;;;86.78;52.58;;;;;;;;;;5094189;28;20103;-63
2024/03/02 09:34:14;;;;;;;82.93;49.30;;;;;;;;;;5093798;28;20501;-63
2024/03/02 09:36:39;;;;;;;84.90;49.40;;;;;;;;;;5093805;28;20024;-64
2024/03/02 09:39:04;;;;;;;77.07;45.95;;;;;;;;;;5095170;28;20020;-63
2024/03/02 09:41:30;;;;;;;85.20;48.90;;;;;;;;;;5093877;28;20100;-62
2024/03/02 09:43:55;;;;;;;76.13;42.92;;;;;;;;;;5094495;28;20024;-62
2024/03/02 09:46:20;;;;;;;74.50;45.28;;;;;;;;;;5093870;28;20024;-62
2024/03/02 09:48:46;;;;;;;73.85;43.33;;;;;;;;;;5109199;28;20023;-63
2024/03/02 09:51:12;;;;;;;70.90;40.72;;;;;;;;;;5113757;28;20069;-63
2024/03/02 09:53:37;;;;;;;72.30;41.67;;;;;;;;;;5108307;28;20088;-62
2024/03/02 09:56:04;;;;;;;71.38;38.75;;;;;;;;;;5093320;28;20028;-62
2024/03/02 09:58:29;;;;;;;72.63;42.28;;;;;;;;;;5094707;28;20031;-64
2024/03/02 10:00:55;;;;;;;75.18;40.42;;;;;;;;;;5093389;28;20503;-63
2024/03/02 10:03:21;;;;;;;72.75;41.40;;;;;;;;;;5093557;28;20028;-64
2024/03/02 10:05:46;;;;;;;68.45;39.35;;;;;;;;;;5093807;28;20028;-61
2024/03/02 10:08:12;;;;;;;70.50;42.17;;;;;;;;;;5095388;28;20520;-62
2024/03/02 10:10:41;;;;;;;70.55;39.15;;;;;;;;;;5113397;28;20256;-62
2024/03/02 10:13:07;;;;;;;70.10;40.40;;;;;;;;;;5081897;28;20020;-63
2024/03/02 10:15:33;;;;;;;65.38;38.15;;;;;;;;;;5092349;28;20335;-62
2024/03/02 10:17:58;;;;;;;59.95;38.03;;;;;;;;;;5092605;28;20028;-64
2024/03/02 10:20:24;;;;;;;68.38;39.25;;;;;;;;;;5092412;28;20447;-63
2024/03/02 10:22:50;;;;;;;63.33;38.03;;;;;;;;;;5109021;28;20495;-63
2024/03/02 10:25:28;;;;;;;62.75;36.20;;;;;;;;;;5112226;28;20023;-60
2024/03/02 10:27:56;;;;;;;62.42;37.97;;;;;;;;;;5103145;28;20089;-62
2024/03/02 10:30:22;;;;;;;66.63;39.45;;;;;;;;;;5074741;28;20028;-61
2024/03/02 10:32:48;;;;;;;68.57;41.08;;;;;;;;;;5072423;28;20111;-64
2024/03/02 10:35:14;;;;;;;67.85;42.17;;;;;;;;;;5072089;28;20040;-63
2024/03/02 10:37:40;;;;;;;75.07;41.92;;;;;;;;;;5083733;28;20037;-63
2024/03/02 10:40:08;;;;;;;69.60;41.38;;;;;;;;;;5083537;28;20419;-63
2024/03/02 10:42:33;;;;;;;64.82;39.28;;;;;;;;;;5093075;28;20024;-62
2024/03/02 10:44:59;;;;;;;69.75;40.28;;;;;;;;;;5101329;28;20159;-62
2024/03/02 10:47:26;;;;;;;66.13;40.15;;;;;;;;;;5112323;28;20031;-63
2024/03/02 10:49:52;;;;;;;64.35;39.58;;;;;;;;;;5113084;28;20028;-62
2024/03/02 10:52:18;;;;;;;69.25;40.90;;;;;;;;;;5100396;28;20052;-62
2024/03/02 10:54:43;;;;;;;66.60;41.13;;;;;;;;;;5083113;28;20122;-64
2024/03/02 10:57:10;;;;;;;70.72;41.50;;;;;;;;;;5072032;28;20050;-65
2024/03/02 10:59:38;;;;;;;80.50;42.40;;;;;;;;;;5072507;28;20104;-62
2024/03/02 11:02:06;;;;;;;71.35;41.10;;;;;;;;;;5072307;28;20021;-63
2024/03/02 11:04:32;;;;;;;69.63;42.17;;;;;;;;;;5087775;28;20171;-64
2024/03/02 11:07:09;;;;;;;70.97;39.80;;;;;;;;;;5102399;28;20065;-63
2024/03/02 11:09:36;;;;;;;72.47;42.05;;;;;;;;;;5112682;28;20088;-63
2024/03/02 11:12:37;;;;;;;74.85;42.33;;;;;;;;;;5094133;28;20161;-63
2024/03/02 11:15:04;;;;;;;70.70;41.60;;;;;;;;;;5010240;28;20038;-64
2024/03/02 11:17:30;;;;;;;74.60;44.42;;;;;;;;;;5075434;28;20127;-65
2024/03/02 11:19:56;;;;;;;73.05;42.45;;;;;;;;;;5093032;28;20099;-65
2024/03/02 11:22:21;;;;;;;77.97;43.05;;;;;;;;;;5108571;28;20028;-63
2024/03/02 11:24:51;;;;;;;72.32;42.00;;;;;;;;;;5112540;28;20020;-59
2024/03/02 11:27:36;;;;;;;70.07;42.03;;;;;;;;;;5112602;28;20030;-63
2024/03/02 11:30:01;;;;;;;70.80;40.50;;;;;;;;;;5100038;28;20020;-62
2024/03/02 11:32:27;;;;;;;73.40;42.72;;;;;;;;;;5091368;28;20410;-63
2024/03/02 11:34:52;;;;;;;72.60;42.35;;;;;;;;;;5093234;28;20036;-64
2024/03/02 11:37:18;;;;;;;71.38;40.97;;;;;;;;;;5109022;28;20047;-64
2024/03/02 11:39:45;;;;;;;72.15;41.67;;;;;;;;;;5112915;28;20157;-64
2024/03/02 11:42:11;;;;;;;65.72;41.42;;;;;;;;;;5112555;28;20023;-63
2024/03/02 11:44:37;;;;;;;63.95;39.45;;;;;;;;;;5112714;28;20437;-63
2024/03/02 11:47:05;;;;;;;74.07;44.20;;;;;;;;;;5112813;28;20019;-65
2024/03/02 11:49:49;;;;;;;75.63;43.92;;;;;;;;;;5111589;28;20111;-63
2024/03/02 11:52:17;;;;;;;70.68;41.90;;;;;;;;;;5109072;28;20054;-64
2024/03/02 11:54:46;;;;;;;72.43;42.83;;;;;;;;;;5112797;28;20050;-63
2024/03/02 11:57:13;;;;;;;72.57;41.53;;;;;;;;;;5112409;28;20023;-63
2024/03/02 11:59:38;;;;;;;66.97;39.65;;;;;;;;;;5112722;28;20034;-65
2024/03/02 12:02:03;;;;;;;66.88;38.83;;;;;;;;;;5112692;28;20020;-64
2024/03/02 12:04:29;;;;;;;69.47;41.45;;;;;;;;;;5111031;28;20020;-66
2024/03/02 12:07:01;;;;;;;68.28;40.42;;;;;;;;;;5094013;28;20031;-64
2024/03/02 12:09:27;;;;;;;69.88;40.30;;;;;;;;;;5092495;28;20020;-65
2024/03/02 12:12:08;;;;;;;67.72;39.28;;;;;;;;;;5092331;28;20027;-66
2024/03/02 12:14:34;;;;;;;71.22;40.03;;;;;;;;;;5103885;28;20417;-65
2024/03/02 12:17:00;;;;;;;67.65;39.85;;;;;;;;;;5112855;28;20042;-65
2024/03/02 12:19:26;;;;;;;62.03;38.58;;;;;;;;;;5110532;28;20019;-64
2024/03/02 12:21:52;;;;;;;62.85;38.38;;;;;;;;;;5112029;28;20062;-65
2024/03/02 12:24:18;;;;;;;63.42;37.80;;;;;;;;;;5114011;28;20415;-64
2024/03/02 12:26:43;;;;;;;70.20;41.47;;;;;;;;;;5116313;28;20030;-65
2024/03/02 12:29:09;;;;;;;59.95;36.33;;;;;;;;;;5116175;28;20361;-64
2024/03/02 12:31:34;;;;;;;71.07;39.30;;;;;;;;;;5115717;28;20031;-62
2024/03/02 12:33:59;;;;;;;62.67;36.88;;;;;;;;;;5113400;28;20043;-65
2024/03/02 12:36:25;;;;;;;67.18;38.60;;;;;;;;;;5098855;28;20432;-61
2024/03/02 12:38:52;;;;;;;65.40;40.05;;;;;;;;;;5096593;28;20407;-66
2024/03/02 12:41:18;;;;;;;65.38;38.25;;;;;;;;;;5112245;28;20023;-66
2024/03/02 12:43:43;;;;;;;63.45;40.05;;;;;;;;;;5115619;28;20047;-67
2024/03/02 12:46:08;;;;;;;63.83;38.05;;;;;;;;;;5115868;28;20023;-65
2024/03/02 12:48:35;;;;;;;63.65;36.45;;;;;;;;;;5114072;28;20023;-56
2024/03/02 12:51:01;;;;;;;66.57;37.97;;;;;;;;;;5114997;28;20450;-63
2024/03/02 12:53:27;;;;;;;61.92;36.38;;;;;;;;;;5115171;28;20043;-63
2024/03/02 12:55:52;;;;;;;65.07;34.53;;;;;;;;;;5115792;28;20024;-64
2024/03/02 12:58:22;;;;;;;61.70;36.33;;;;;;;;;;5102847;28;20016;-67
2024/03/02 13:00:48;;;;;;;61.20;36.60;;;;;;;;;;5094788;28;20024;-68
2024/03/02 13:03:13;;;;;;;63.40;36.83;;;;;;;;;;5094982;28;20092;-68
2024/03/02 13:05:39;;;;;;;63.25;37.00;;;;;;;;;;5114066;28;20030;-69
2024/03/02 13:08:06;;;;;;;60.45;36.63;;;;;;;;;;5115765;28;20019;-69
2024/03/02 13:10:32;;;;;;;62.22;34.90;;;;;;;;;;5115060;27;20016;-67
2024/03/02 13:12:57;;;;;;;62.85;34.95;;;;;;;;;;5114987;28;20140;-67
2024/03/02 13:15:23;;;;;;;55.08;32.88;;;;;;;;;;5115105;28;20047;-68
2024/03/02 13:17:49;;;;;;;60.72;34.35;;;;;;;;;;5103880;28;20385;-68
2024/03/02 13:20:14;;;;;;;54.88;33.78;;;;;;;;;;5096235;28;20054;-68
2024/03/02 13:22:39;;;;;;;55.05;34.53;;;;;;;;;;5114739;28;20079;-69
2024/03/02 13:25:05;;;;;;;57.20;33.80;;;;;;;;;;5114959;28;20031;-68
2024/03/02 13:27:31;;;;;;;59.83;33.10;;;;;;;;;;5114728;27;20047;-67
2024/03/02 13:29:57;;;;;;;55.83;31.77;;;;;;;;;;5114723;28;20060;-66
2024/03/02 13:32:24;;;;;;;40.97;21.75;;;;;;;;;;5105391;28;20024;-67
2024/03/02 13:34:49;;;;;;;52.17;27.95;;;;;;;;;;5100397;28;20028;-66
2024/03/02 13:37:14;;;;;;;56.05;32.13;;;;;;;;;;5113847;28;20024;-67
2024/03/02 13:39:40;;;;;;;50.20;30.60;;;;;;;;;;5114580;28;20034;-68
2024/03/02 13:42:10;;;;;;;54.45;29.98;;;;;;;;;;5114867;28;20038;-66
2024/03/02 13:44:36;;;;;;;54.47;29.67;;;;;;;;;;5101155;28;20020;-67
2024/03/02 13:47:02;;;;;;;54.20;31.08;;;;;;;;;;5094684;28;20031;-66
2024/03/02 13:49:34;;;;;;;51.50;28.60;;;;;;;;;;5094250;28;20036;-68
2024/03/02 13:52:02;;;;;;;57.20;31.42;;;;;;;;;;5093561;28;20367;-67
2024/03/02 13:54:28;;;;;;;50.58;27.70;;;;;;;;;;5093636;28;20044;-67
2024/03/02 13:56:53;;;;;;;57.60;30.98;;;;;;;;;;5094217;28;20357;-67
2024/03/02 13:59:18;;;;;;;54.22;31.63;;;;;;;;;;5093577;28;20425;-68
2024/03/02 14:01:44;;;;;;;53.88;31.17;;;;;;;;;;5099661;28;20030;-68
2024/03/02 14:04:09;;;;;;;53.90;29.38;;;;;;;;;;5114329;28;20475;-66
2024/03/02 14:06:35;;;;;;;49.75;30.33;;;;;;;;;;5109460;28;20040;-69
2024/03/02 14:09:00;;;;;;;50.22;30.40;;;;;;;;;;5093428;28;20028;-68
2024/03/02 14:11:25;;;;;;;49.58;30.45;;;;;;;;;;5093263;28;20104;-67
2024/03/02 14:13:54;;;;;;;58.80;30.83;;;;;;;;;;5093827;28;20331;-68
2024/03/02 14:16:19;;;;;;;56.15;31.45;;;;;;;;;;5097729;28;20104;-68
2024/03/02 14:18:45;;;;;;;54.28;30.75;;;;;;;;;;5113709;28;20023;-66